createdAt,value
2019-01-17T00:09:26.492Z,95368.97
2019-01-17T00:12:01.126Z,95367.85
2019-01-17T00:14:38.918Z,95365.94
2019-01-17T00:17:13.794Z,95369.72
2019-01-17T00:19:48.695Z,95372.36
2019-01-17T00:39:46.837Z,95392.90
2019-01-17T00:42:21.612Z,95388.39
2019-01-17T01:19:44.637Z,95396.27
2019-01-17T01:22:19.471Z,95394.66
2019-01-17T01:24:55.283Z,95396.89
2019-01-17T01:28:01.180Z,95395.95
2019-01-17T01:47:59.071Z,95377.17
2019-01-17T01:50:34.713Z,95381.53
2019-01-17T01:53:05.613Z,95379.61
2019-01-17T01:55:35.814Z,95378.47
2019-01-17T01:58:05.391Z,95379.27
2019-01-17T02:00:35.095Z,95382.01
2019-01-17T02:03:04.499Z,95374.14
2019-01-17T02:05:34.196Z,95366.77
2019-01-17T02:08:04.046Z,95369.47
2019-01-17T02:10:33.740Z,95368.05
2019-01-17T02:13:03.159Z,95370.31
2019-01-17T02:15:32.911Z,95372.53
2019-01-17T02:18:02.371Z,95375.11
2019-01-17T02:20:32.046Z,95374.14
2019-01-17T02:40:24.425Z,95371.27
2019-01-17T02:42:54.630Z,95374.48
2019-01-17T02:45:24.369Z,95367.43
2019-01-17T02:47:54.276Z,95368.86
2019-01-17T02:50:24.071Z,95371.27
2019-01-17T02:52:53.817Z,95372.55
2019-01-17T02:55:23.491Z,95368.22
2019-01-17T02:57:53.075Z,95365.48
2019-01-17T03:00:22.843Z,95360.52
2019-01-17T03:02:52.335Z,95357.98
2019-01-17T03:05:21.697Z,95352.03
2019-01-17T03:07:51.202Z,95354.94
2019-01-17T03:10:20.877Z,95348.35
2019-01-17T03:12:50.456Z,95353.44
2019-01-17T03:15:20.047Z,95352.66
2019-01-17T03:17:49.829Z,95357.00
2019-01-17T03:37:41.937Z,95336.01
2019-01-17T03:40:14.203Z,95343.35
2019-01-17T03:42:43.953Z,95339.04
2019-01-17T03:45:13.822Z,95336.47
2019-01-17T03:47:43.547Z,95328.33
2019-01-17T03:50:14.399Z,95323.99
2019-01-17T03:52:44.116Z,95326.08
2019-01-17T03:55:15.932Z,95330.39
2019-01-17T03:57:45.658Z,95333.45
2019-01-17T04:17:37.203Z,95360.95
2019-01-17T04:20:08.582Z,95366.85
2019-01-17T04:22:38.023Z,95370.84
2019-01-17T04:25:08.578Z,95367.45
2019-01-17T04:27:38.169Z,95369.05
2019-01-17T04:30:13.615Z,95365.19
2019-01-17T04:32:43.099Z,95366.12
2019-01-17T04:35:12.809Z,95372.06
2019-01-17T04:37:42.482Z,95374.98
2019-01-17T04:40:12.398Z,95377.84
2019-01-17T04:42:42.162Z,95373.05
2019-01-17T04:45:12.542Z,95369.33
2019-01-17T04:47:42.302Z,95375.09
2019-01-17T04:50:13.196Z,95377.31
2019-01-17T04:52:43.176Z,95378.12
2019-01-17T04:55:13.234Z,95377.77
2019-01-17T05:20:52.608Z,95393.66
2019-01-17T05:23:22.104Z,95389.84
2019-01-17T05:25:51.465Z,95400.13
2019-01-17T05:28:21.841Z,95395.28
2019-01-17T05:30:51.406Z,95387.63
2019-01-17T05:33:21.157Z,95390.81
2019-01-17T05:35:50.783Z,95382.74
2019-01-17T05:38:20.354Z,95383.92
2019-01-17T05:40:50.547Z,95389.01
2019-01-17T06:00:42.407Z,95377.48
2019-01-17T06:03:12.124Z,95375.81
2019-01-17T06:05:41.821Z,95384.28
2019-01-17T06:08:11.568Z,95379.45
2019-01-17T06:10:41.232Z,95381.00
2019-01-17T06:30:32.667Z,95366.64
2019-01-17T06:33:02.453Z,95364.92
2019-01-17T06:35:32.011Z,95367.45
2019-01-17T06:38:01.512Z,95360.45
2019-01-17T06:40:32.643Z,95368.10
2019-01-17T06:43:02.061Z,95368.28
2019-01-17T06:45:31.875Z,95376.13
2019-01-17T06:48:01.465Z,95365.27
2019-01-17T06:50:31.204Z,95366.77
2019-01-17T06:53:00.995Z,95371.42
2019-01-17T06:55:34.364Z,95370.79
2019-01-17T06:58:00.542Z,95373.63
2019-01-17T07:00:29.984Z,95379.09
2019-01-17T07:02:59.054Z,95374.50
2019-01-17T07:05:34.192Z,95373.52
2019-01-17T07:08:09.148Z,95376.89
2019-01-17T07:10:45.513Z,95385.06
2019-01-17T07:13:22.292Z,95385.28
2019-01-17T07:15:57.652Z,95388.81
2019-01-17T07:36:30.040Z,95390.16
2019-01-17T07:38:59.628Z,95399.14
2019-01-17T07:41:30.500Z,95397.19
2019-01-17T07:44:00.318Z,95403.26
2019-01-17T07:46:30.388Z,95400.19
2019-01-17T07:49:00.286Z,95400.99
2019-01-17T07:51:30.067Z,95401.47
2019-01-17T07:53:59.895Z,95404.16
2019-01-17T07:56:29.733Z,95404.14
2019-01-17T08:16:21.528Z,95422.73
2019-01-17T08:18:52.254Z,95420.19
2019-01-17T08:21:21.887Z,95418.91
2019-01-17T08:23:51.843Z,95426.29
2019-01-17T08:26:21.613Z,95423.22
2019-01-17T08:46:12.457Z,95414.60
2019-01-17T08:48:41.940Z,95424.23
2019-01-17T08:51:11.492Z,95428.89
2019-01-17T08:53:41.373Z,95419.84
2019-01-17T08:56:11.100Z,95420.34
2019-01-17T08:58:40.821Z,95418.96
2019-01-17T09:01:10.674Z,95415.01
2019-01-17T09:03:40.421Z,95411.85
2019-01-17T09:06:10.135Z,95403.98
2019-01-17T09:08:39.616Z,95399.63
2019-01-17T09:11:09.443Z,95401.36
2019-01-17T09:13:39.072Z,95396.33
2019-01-17T09:16:08.809Z,95402.39
2019-01-17T09:18:38.496Z,95392.84
2019-01-17T09:21:08.000Z,95394.92
2019-01-17T09:23:37.711Z,95389.27
2019-01-17T09:26:07.830Z,95384.98
2019-01-17T09:28:37.015Z,95378.99
2019-01-17T09:31:06.863Z,95380.25
2019-01-17T09:50:57.745Z,95366.78
2019-01-17T10:10:49.503Z,95329.25
2019-01-17T10:13:19.236Z,95327.59
2019-01-17T10:16:10.849Z,95324.78
2019-01-17T10:18:51.904Z,95314.37
2019-01-17T10:21:45.027Z,95325.84
2019-01-17T10:24:26.112Z,95313.47
2019-01-17T10:27:08.930Z,95313.41
2019-01-17T10:29:45.687Z,95304.58
2019-01-17T10:32:56.100Z,95298.80
2019-01-17T10:35:54.708Z,95294.48
2019-01-17T10:39:36.936Z,95281.91
2019-01-17T10:42:17.788Z,95281.05
2019-01-17T10:46:00.519Z,95283.70
2019-01-17T10:48:48.268Z,95275.36
2019-01-17T10:51:42.868Z,95273.14
2019-01-17T10:54:22.096Z,95273.66
2019-01-17T10:57:09.424Z,95271.06
2019-01-17T11:02:29.711Z,95263.41
2019-01-17T11:06:14.349Z,95252.57
2019-01-17T11:09:59.875Z,95254.56
2019-01-17T11:30:08.532Z,95228.87
2019-01-17T11:32:51.833Z,95223.69
2019-01-17T11:52:56.482Z,95189.55
2019-01-17T11:55:44.801Z,95177.75
2019-01-17T11:58:27.027Z,95179.65
2019-01-17T12:01:11.639Z,95164.58
2019-01-17T12:03:52.449Z,95164.14
2019-01-17T12:06:22.171Z,95167.47
2019-01-17T12:08:52.395Z,95156.63
2019-01-17T12:11:22.167Z,95155.22
2019-01-17T12:13:51.851Z,95154.08
2019-01-17T12:16:21.545Z,95148.80
2019-01-17T12:18:51.074Z,95147.48
2019-01-17T12:21:20.949Z,95135.69
2019-01-17T12:23:50.484Z,95133.06
2019-01-17T12:26:20.161Z,95132.10
2019-01-17T12:28:49.823Z,95131.28
2019-01-17T12:31:19.585Z,95132.52
2019-01-17T12:33:49.461Z,95127.55
2019-01-17T12:36:19.143Z,95128.90
2019-01-17T12:56:11.328Z,95115.45
2019-01-17T12:58:40.599Z,95119.97
2019-01-17T13:01:16.123Z,95123.72
2019-01-17T13:03:50.984Z,95123.81
2019-01-17T13:06:26.178Z,95119.16
2019-01-17T13:09:01.261Z,95117.23
2019-01-17T13:11:36.605Z,95119.86
2019-01-17T13:14:12.128Z,95120.20
2019-01-17T13:16:47.026Z,95118.20
2019-01-17T13:37:17.947Z,95134.15
2019-01-17T13:39:47.247Z,95137.91
2019-01-17T13:42:20.782Z,95131.23
2019-01-17T13:44:46.259Z,95133.82
2019-01-17T13:47:15.882Z,95130.91
2019-01-17T13:49:45.425Z,95128.14
2019-01-17T13:52:15.389Z,95132.88
2019-01-17T13:54:44.880Z,95133.30
2019-01-17T13:57:14.765Z,95138.59
2019-01-17T13:59:44.573Z,95140.73
2019-01-17T14:02:14.191Z,95135.41
2019-01-17T14:04:43.836Z,95141.72
2019-01-17T14:24:35.538Z,95133.64
2019-01-17T14:27:05.074Z,95136.00
2019-01-17T14:29:34.766Z,95138.44
2019-01-17T14:49:27.233Z,95138.13
2019-01-17T14:51:56.936Z,95143.02
2019-01-17T14:54:26.753Z,95140.98
2019-01-17T14:56:56.552Z,95142.89
2019-01-17T15:16:48.372Z,95147.66
2019-01-17T15:19:17.816Z,95154.97
2019-01-17T15:21:47.145Z,95156.81
2019-01-17T15:24:16.871Z,95164.03
2019-01-17T15:26:46.480Z,95159.14
2019-01-17T15:29:16.141Z,95153.45
2019-01-17T15:31:45.714Z,95157.12
2019-01-17T15:34:15.604Z,95162.32
2019-01-17T15:36:45.170Z,95157.98
2019-01-17T15:39:14.716Z,95156.91
2019-01-17T15:41:44.581Z,95161.02
2019-01-17T15:44:14.411Z,95162.45
2019-01-17T15:46:43.798Z,95169.50
2019-01-17T15:49:13.134Z,95169.98
2019-01-17T15:51:42.813Z,95167.39
2019-01-17T15:54:12.212Z,95163.60
2019-01-17T15:56:41.864Z,95165.22
2019-01-17T15:59:11.430Z,95162.16
2019-01-17T16:01:41.011Z,95170.75
2019-01-17T16:04:10.520Z,95170.60
2019-01-17T16:06:40.327Z,95175.28
2019-01-17T16:09:10.526Z,95176.80
2019-01-17T16:11:40.262Z,95182.02
2019-01-17T16:14:09.803Z,95185.00
2019-01-17T16:16:39.569Z,95182.75
2019-01-17T16:19:08.985Z,95188.66
2019-01-17T16:21:38.513Z,95192.02
2019-01-17T16:24:08.263Z,95183.66
2019-01-17T16:26:38.080Z,95186.77
2019-01-17T16:29:07.887Z,95187.64
2019-01-17T16:31:38.042Z,95188.05
2019-01-17T16:34:08.577Z,95185.14
2019-01-17T16:36:38.874Z,95183.74
2019-01-17T16:39:09.198Z,95187.84
2019-01-17T16:41:39.743Z,95191.02
2019-01-17T16:44:09.658Z,95188.03
2019-01-17T16:46:39.878Z,95188.44
2019-01-17T16:49:10.197Z,95193.52
2019-01-17T16:51:40.089Z,95193.41
2019-01-17T16:54:09.914Z,95192.31
2019-01-17T16:56:40.290Z,95197.02
2019-01-17T16:59:10.055Z,95198.97
2019-01-17T17:01:40.632Z,95193.02
2019-01-17T17:04:12.533Z,95196.58
2019-01-17T17:06:42.320Z,95196.59
2019-01-17T17:09:12.869Z,95197.98
2019-01-17T17:11:42.945Z,95201.86
2019-01-17T17:14:13.135Z,95201.75
2019-01-17T17:16:43.069Z,95208.02
2019-01-17T17:19:12.634Z,95208.19
2019-01-17T17:21:42.245Z,95209.39
2019-01-17T17:24:11.987Z,95212.02
2019-01-17T17:26:41.726Z,95214.02
2019-01-17T17:29:11.620Z,95212.33
2019-01-17T17:31:41.227Z,95209.48
2019-01-17T17:34:11.339Z,95216.98
2019-01-17T17:36:40.798Z,95220.19
2019-01-17T17:39:10.609Z,95220.36
2019-01-17T17:41:40.196Z,95215.86
2019-01-17T17:44:09.918Z,95217.56
2019-01-17T17:46:39.571Z,95221.61
2019-01-17T17:49:10.117Z,95220.00
2019-01-17T17:51:39.846Z,95214.25
2019-01-17T17:54:10.355Z,95224.30
2019-01-17T17:56:39.841Z,95224.45
2019-01-17T17:59:09.607Z,95224.56
2019-01-17T18:01:41.638Z,95228.20
2019-01-17T18:04:11.467Z,95227.41
2019-01-17T18:06:41.311Z,95228.28
2019-01-17T18:09:11.409Z,95228.88
2019-01-17T18:11:41.373Z,95223.98
2019-01-17T18:14:11.079Z,95226.87
2019-01-17T18:16:40.956Z,95227.97
2019-01-17T18:19:10.765Z,95230.94
2019-01-17T18:21:40.474Z,95232.13
2019-01-17T18:24:10.311Z,95235.74
2019-01-17T18:26:39.619Z,95241.57
2019-01-17T18:29:09.112Z,95242.48
2019-01-17T18:31:38.939Z,95244.37
2019-01-17T18:34:09.061Z,95244.02
2019-01-17T18:36:38.820Z,95241.52
2019-01-17T18:39:12.392Z,95243.80
2019-01-17T18:41:42.098Z,95237.65
2019-01-17T18:44:11.863Z,95237.11
2019-01-17T18:46:41.547Z,95234.58
2019-01-17T18:49:11.203Z,95230.78
2019-01-17T18:51:40.856Z,95237.84
2019-01-17T18:54:10.578Z,95245.48
2019-01-17T18:56:40.124Z,95244.05
2019-01-17T18:59:09.747Z,95251.34
2019-01-17T19:01:39.544Z,95259.65
2019-01-17T19:04:09.908Z,95250.69
2019-01-17T19:06:39.858Z,95252.69
2019-01-17T19:09:09.593Z,95254.83
2019-01-17T19:11:39.566Z,95256.89
2019-01-17T19:14:09.524Z,95251.82
2019-01-17T19:16:38.990Z,95262.75
2019-01-17T19:19:08.708Z,95269.91
2019-01-17T19:21:38.218Z,95271.38
2019-01-17T19:24:08.044Z,95266.23
2019-01-17T19:26:37.863Z,95270.78
2019-01-17T19:29:07.336Z,95269.80
2019-01-17T19:31:37.138Z,95278.35
2019-01-17T19:34:06.719Z,95271.70
2019-01-17T19:36:37.436Z,95270.64
2019-01-17T19:39:11.335Z,95272.77
2019-01-17T19:41:41.432Z,95274.40
2019-01-17T19:44:11.045Z,95273.80
2019-01-17T19:46:40.698Z,95281.29
2019-01-17T19:49:10.471Z,95281.03
2019-01-17T19:51:40.151Z,95279.14
2019-01-17T19:54:09.522Z,95271.34
2019-01-17T19:56:39.232Z,95273.73
2019-01-17T19:59:08.866Z,95274.03
2019-01-17T20:01:38.367Z,95275.09
2019-01-17T20:04:08.302Z,95272.08
2019-01-17T20:06:37.665Z,95276.59
2019-01-17T20:09:08.668Z,95278.75
2019-01-17T20:11:38.473Z,95278.81
2019-01-17T20:14:07.931Z,95283.45
2019-01-17T20:16:37.643Z,95275.05
2019-01-17T20:19:07.044Z,95275.08
2019-01-17T20:21:36.771Z,95272.27
2019-01-17T20:24:06.616Z,95273.55
2019-01-17T20:26:36.111Z,95277.56
2019-01-17T20:29:05.804Z,95269.05
2019-01-17T20:31:35.623Z,95264.41
2019-01-17T20:34:05.206Z,95261.80
2019-01-17T20:36:34.836Z,95263.39
2019-01-17T20:39:04.899Z,95264.50
2019-01-17T20:41:34.348Z,95270.08
2019-01-17T20:44:03.833Z,95274.92
2019-01-17T20:46:33.342Z,95273.77
2019-01-17T20:49:02.993Z,95273.80
2019-01-17T20:51:32.557Z,95266.50
2019-01-17T20:54:02.253Z,95267.91
2019-01-17T20:56:32.001Z,95272.19
2019-01-17T20:59:01.573Z,95267.22
2019-01-17T21:02:00.663Z,95270.52
2019-01-17T21:04:30.116Z,95278.95
2019-01-17T21:07:05.506Z,95276.52
2019-01-17T21:09:29.615Z,95274.35
2019-01-17T21:11:59.065Z,95273.77
2019-01-17T21:14:28.794Z,95271.20
2019-01-17T21:16:58.334Z,95284.38
2019-01-17T21:19:27.968Z,95270.25
2019-01-17T21:21:57.337Z,95272.21
2019-01-17T21:24:26.904Z,95277.35
2019-01-17T21:26:56.377Z,95273.47
2019-01-17T21:29:26.086Z,95278.48
2019-01-17T21:31:55.679Z,95274.53
2019-01-17T21:34:25.456Z,95274.65
2019-01-17T21:36:55.075Z,95280.73
2019-01-17T21:39:25.024Z,95281.37
2019-01-17T21:41:54.521Z,95281.84
2019-01-17T21:44:24.043Z,95268.48
2019-01-17T21:46:54.316Z,95272.00
2019-01-17T21:49:23.979Z,95270.73
2019-01-17T21:51:53.566Z,95279.69
2019-01-17T21:54:23.227Z,95283.75
2019-01-17T21:56:52.847Z,95279.85
2019-01-17T21:59:22.445Z,95282.50
2019-01-17T22:01:51.850Z,95277.73
2019-01-17T22:04:21.547Z,95279.91
2019-01-17T22:06:51.269Z,95272.23
2019-01-17T22:09:20.874Z,95266.14
2019-01-17T22:11:50.378Z,95269.36
2019-01-17T22:14:19.862Z,95268.41
2019-01-17T22:16:49.582Z,95267.00
2019-01-17T22:19:19.068Z,95268.47
2019-01-17T22:21:48.672Z,95262.73
2019-01-17T22:24:18.467Z,95257.56
2019-01-17T22:26:47.995Z,95260.95
2019-01-17T22:29:17.781Z,95268.31
2019-01-17T22:31:47.464Z,95271.03
2019-01-17T22:34:17.137Z,95270.23
2019-01-17T22:36:46.536Z,95274.92
2019-01-17T22:39:16.429Z,95270.42
2019-01-17T22:41:46.165Z,95272.06
2019-01-17T22:44:15.750Z,95265.81
2019-01-17T22:46:45.528Z,95263.50
2019-01-17T22:49:15.167Z,95266.38
2019-01-17T22:51:44.679Z,95263.21
2019-01-17T22:54:14.126Z,95258.43
2019-01-17T22:56:43.634Z,95257.73
2019-01-17T22:59:13.334Z,95262.28
2019-01-17T23:01:42.975Z,95260.64
2019-01-17T23:04:12.432Z,95254.41
2019-01-17T23:06:41.916Z,95256.34
2019-01-17T23:09:11.471Z,95257.98
2019-01-17T23:11:41.152Z,95258.95
2019-01-17T23:14:10.684Z,95254.46
2019-01-17T23:16:40.411Z,95245.20
2019-01-17T23:19:10.098Z,95252.89
2019-01-17T23:21:39.691Z,95246.45
2019-01-17T23:24:09.327Z,95236.23
2019-01-17T23:26:39.047Z,95243.58
2019-01-17T23:29:08.729Z,95236.70
2019-01-17T23:31:38.370Z,95236.23
2019-01-17T23:34:07.914Z,95234.27
2019-01-17T23:36:37.331Z,95231.23
2019-01-17T23:39:08.140Z,95239.91
2019-01-17T23:41:37.778Z,95234.14
2019-01-17T23:44:07.286Z,95228.55
2019-01-17T23:46:37.023Z,95229.31
2019-01-17T23:49:06.652Z,95229.35
2019-01-17T23:51:36.359Z,95227.43
2019-01-17T23:54:06.010Z,95222.65
2019-01-17T23:56:35.723Z,95233.20
2019-01-17T23:59:05.336Z,95227.44
